createdAt,value
2023-04-09T00:00:57.826Z,15.40
2023-04-09T00:03:32.666Z,14.55
2023-04-09T00:06:04.995Z,12.98
2023-04-09T00:08:40.173Z,12.98
2023-04-09T00:11:13.124Z,13.35
2023-04-09T00:13:42.196Z,14.98
2023-04-09T00:16:13.953Z,14.98
2023-04-09T00:18:50.972Z,16.27
2023-04-09T00:21:47.092Z,14.15
2023-04-09T00:24:15.260Z,16.38
2023-04-09T00:26:45.270Z,15.60
2023-04-09T00:29:14.244Z,15.65
2023-04-09T00:31:54.413Z,14.73
2023-04-09T00:34:23.351Z,15.52
2023-04-09T00:36:54.553Z,15.75
2023-04-09T00:39:24.559Z,14.98
2023-04-09T00:42:18.046Z,14.10
2023-04-09T00:44:59.834Z,14.57
2023-04-09T00:47:29.871Z,14.32
2023-04-09T00:49:59.243Z,14.68
2023-04-09T00:52:32.510Z,13.57
2023-04-09T00:55:02.111Z,14.85
2023-04-09T00:57:39.283Z,15.43
2023-04-09T01:00:09.192Z,15.50
2023-04-09T01:02:54.523Z,15.55
2023-04-09T01:05:41.776Z,14.77
2023-04-09T01:08:16.184Z,15.82
2023-04-09T01:10:57.985Z,14.48
2023-04-09T01:13:46.357Z,16.27
2023-04-09T01:16:20.892Z,15.85
2023-04-09T01:18:54.342Z,15.35
2023-04-09T01:21:28.885Z,16.02
2023-04-09T01:24:18.041Z,15.52
2023-04-09T01:27:03.109Z,15.65
2023-04-09T01:29:40.879Z,14.32
2023-04-09T01:32:18.615Z,15.38
2023-04-09T01:35:10.065Z,14.63
2023-04-09T01:37:39.732Z,14.98
2023-04-09T01:40:08.629Z,14.77
2023-04-09T01:42:38.094Z,15.07
2023-04-09T01:45:09.441Z,16.08
2023-04-09T01:47:47.442Z,15.77
2023-04-09T01:50:19.228Z,14.00
2023-04-09T01:52:47.465Z,15.68
2023-04-09T01:55:17.169Z,15.10
2023-04-09T01:57:46.973Z,14.05
2023-04-09T02:00:31.136Z,14.93
2023-04-09T02:03:18.598Z,14.73
2023-04-09T02:05:57.370Z,14.43
2023-04-09T02:08:27.013Z,14.57
2023-04-09T02:11:00.468Z,15.50
2023-04-09T02:13:30.300Z,15.52
2023-04-09T02:16:05.284Z,16.15
2023-04-09T02:18:52.209Z,16.05
2023-04-09T02:21:25.739Z,16.38
2023-04-09T02:23:57.740Z,16.30
2023-04-09T02:26:26.013Z,16.08
2023-04-09T02:28:59.968Z,14.18
2023-04-09T02:31:40.866Z,14.23
2023-04-09T02:34:12.641Z,15.00
2023-04-09T02:36:48.057Z,15.82
2023-04-09T02:43:03.897Z,14.23
2023-04-09T02:48:45.626Z,15.27
2023-04-09T02:54:33.835Z,13.75
2023-04-09T02:57:22.723Z,14.57
2023-04-09T02:59:52.296Z,13.15
2023-04-09T03:02:30.631Z,12.88
2023-04-09T03:05:06.589Z,14.27
2023-04-09T03:08:04.592Z,14.70
2023-04-09T03:14:04.322Z,14.43
2023-04-09T03:16:57.292Z,14.32
2023-04-09T03:22:28.470Z,14.70
2023-04-09T03:28:15.485Z,15.63
2023-04-09T03:31:02.958Z,14.23
2023-04-09T03:33:32.744Z,14.90
2023-04-09T03:39:20.658Z,16.48
2023-04-09T03:41:51.610Z,15.40
2023-04-09T03:44:20.491Z,17.25
2023-04-09T03:46:58.660Z,15.68
2023-04-09T03:49:40.348Z,15.95
2023-04-09T04:06:55.974Z,15.35
2023-04-09T04:09:24.296Z,16.45
2023-04-09T04:12:07.600Z,15.13
2023-04-09T04:14:36.291Z,15.98
2023-04-09T04:17:06.943Z,16.60
2023-04-09T04:19:35.425Z,17.10
2023-04-09T04:22:03.438Z,19.65
2023-04-09T04:24:38.589Z,19.60
2023-04-09T04:27:11.930Z,19.27
2023-04-09T04:29:40.440Z,18.45
2023-04-09T04:32:11.777Z,19.35
2023-04-09T04:34:39.826Z,18.05
2023-04-09T04:37:18.316Z,19.15
2023-04-09T04:39:53.759Z,18.42
2023-04-09T04:42:24.978Z,19.73
2023-04-09T04:45:01.223Z,19.15
2023-04-09T04:47:29.478Z,18.20
2023-04-09T04:49:59.988Z,20.58
2023-04-09T04:52:30.385Z,19.52
2023-04-09T04:55:13.571Z,19.70
2023-04-09T04:57:44.635Z,19.23
2023-04-09T05:00:27.212Z,19.95
2023-04-09T05:02:56.649Z,19.08
2023-04-09T05:05:49.921Z,17.15
2023-04-09T05:08:29.035Z,17.45
2023-04-09T05:11:06.365Z,18.30
2023-04-09T05:13:47.075Z,16.33
2023-04-09T05:16:33.435Z,16.95
2023-04-09T05:19:03.612Z,16.60
2023-04-09T05:21:31.563Z,16.17
2023-04-09T05:24:08.070Z,15.13
2023-04-09T05:26:36.151Z,16.02
2023-04-09T05:29:33.928Z,16.08
2023-04-09T05:32:02.170Z,15.40
2023-04-09T05:34:32.239Z,13.85
2023-04-09T05:37:01.398Z,14.25
2023-04-09T05:39:36.300Z,14.52
2023-04-09T05:42:07.482Z,13.57
2023-04-09T05:45:06.570Z,15.18
2023-04-09T05:47:34.974Z,14.15
2023-04-09T05:50:03.231Z,14.77
2023-04-09T05:52:41.553Z,14.57
2023-04-09T05:55:11.341Z,14.65
2023-04-09T05:57:56.760Z,14.90
2023-04-09T06:00:30.882Z,15.40
2023-04-09T06:03:11.357Z,16.17
2023-04-09T06:05:40.724Z,18.83
2023-04-09T06:08:12.943Z,18.38
2023-04-09T06:10:41.525Z,17.63
2023-04-09T06:13:09.744Z,18.25
2023-04-09T06:15:39.245Z,17.83
2023-04-09T06:18:19.753Z,19.75
2023-04-09T06:21:02.942Z,17.85
2023-04-09T06:23:30.940Z,19.00
2023-04-09T06:26:15.549Z,19.08
2023-04-09T06:28:50.947Z,18.23
2023-04-09T06:31:25.246Z,19.55
2023-04-09T06:33:58.564Z,18.98
2023-04-09T06:36:48.551Z,20.77
2023-04-09T06:39:16.781Z,19.63
2023-04-09T06:41:51.401Z,22.75
2023-04-09T06:44:25.892Z,24.05
2023-04-09T06:46:54.077Z,19.95
2023-04-09T06:49:32.605Z,22.58
2023-04-09T06:52:06.330Z,21.75
2023-04-09T06:54:44.210Z,20.40
2023-04-09T06:57:13.535Z,21.63
2023-04-09T06:59:59.803Z,21.67
2023-04-09T07:02:38.712Z,22.00
2023-04-09T07:05:07.082Z,22.90
2023-04-09T07:07:51.457Z,21.95
2023-04-09T07:10:23.407Z,21.75
2023-04-09T07:13:00.148Z,23.20
2023-04-09T07:15:28.222Z,19.30
2023-04-09T07:18:03.476Z,19.55
2023-04-09T07:20:31.984Z,19.83
2023-04-09T07:23:02.571Z,18.30
2023-04-09T07:25:33.912Z,17.95
2023-04-09T07:28:02.136Z,16.50
2023-04-09T07:30:31.320Z,18.23
2023-04-09T07:32:59.668Z,17.23
2023-04-09T07:35:29.620Z,14.98
2023-04-09T07:38:01.946Z,17.75
2023-04-09T07:40:35.725Z,18.35
2023-04-09T07:43:06.265Z,17.35
2023-04-09T07:45:35.615Z,18.60
2023-04-09T07:48:03.662Z,16.73
2023-04-09T07:50:33.926Z,18.48
2023-04-09T07:53:05.512Z,17.08
2023-04-09T07:55:35.764Z,18.48
2023-04-09T07:58:20.205Z,18.55
2023-04-09T08:00:50.087Z,18.38
2023-04-09T08:03:20.908Z,20.50
2023-04-09T08:05:54.838Z,18.13
2023-04-09T08:08:23.986Z,16.95
2023-04-09T08:10:52.266Z,17.83
2023-04-09T08:13:35.903Z,17.17
2023-04-09T08:16:04.268Z,16.25
2023-04-09T08:18:37.866Z,15.70
2023-04-09T08:21:15.170Z,16.27
2023-04-09T08:23:51.571Z,15.85
2023-04-09T08:26:20.611Z,16.92
2023-04-09T08:28:48.709Z,15.30
2023-04-09T08:31:17.900Z,14.77
2023-04-09T08:33:55.750Z,19.02
2023-04-09T08:36:27.817Z,19.55
2023-04-09T08:39:01.988Z,19.80
2023-04-09T08:41:47.121Z,18.35
2023-04-09T08:44:23.796Z,19.88
2023-04-09T08:46:52.537Z,21.23
2023-04-09T08:49:32.923Z,22.05
2023-04-09T08:52:08.319Z,21.25
2023-04-09T08:54:37.175Z,22.35
2023-04-09T08:57:10.487Z,20.73
2023-04-09T08:59:40.493Z,19.80
2023-04-09T09:02:12.556Z,18.33
2023-04-09T09:05:02.304Z,19.90
2023-04-09T09:07:32.704Z,20.92
2023-04-09T09:10:02.061Z,19.88
2023-04-09T09:12:47.843Z,18.42
2023-04-09T09:15:30.709Z,18.33
2023-04-09T09:18:01.061Z,18.25
2023-04-09T09:20:30.816Z,17.08
2023-04-09T09:23:04.386Z,17.70
2023-04-09T09:25:39.646Z,18.02
2023-04-09T09:28:12.819Z,17.17
2023-04-09T09:30:49.376Z,16.52
2023-04-09T09:33:34.913Z,15.95
2023-04-09T09:36:07.859Z,15.80
2023-04-09T09:38:38.889Z,16.73
2023-04-09T09:41:17.950Z,17.42
2023-04-09T09:44:01.379Z,17.20
2023-04-09T09:46:36.395Z,16.33
2023-04-09T09:49:04.597Z,17.90
2023-04-09T09:51:35.822Z,17.05
2023-04-09T09:54:04.445Z,17.70
2023-04-09T09:56:36.220Z,16.77
2023-04-09T09:59:35.814Z,16.95
2023-04-09T10:02:07.615Z,17.02
2023-04-09T10:04:43.169Z,20.55
2023-04-09T10:07:21.041Z,18.13
2023-04-09T10:09:56.417Z,20.88
2023-04-09T10:12:27.673Z,18.67
2023-04-09T10:15:06.492Z,19.48
2023-04-09T10:17:34.869Z,17.17
2023-04-09T10:20:28.755Z,20.02
2023-04-09T10:22:58.148Z,19.02
2023-04-09T10:25:26.258Z,17.35
2023-04-09T10:28:06.575Z,16.45
2023-04-09T10:30:40.827Z,17.35
2023-04-09T10:33:17.376Z,17.30
2023-04-09T10:35:50.737Z,19.13
2023-04-09T10:38:52.437Z,20.38
2023-04-09T10:43:51.772Z,18.88
2023-04-09T10:46:28.536Z,16.42
2023-04-09T10:49:29.447Z,18.23
2023-04-09T10:52:04.937Z,17.23
2023-04-09T10:54:41.075Z,19.40
2023-04-09T10:57:20.395Z,17.42
2023-04-09T11:00:04.850Z,17.30
2023-04-09T11:02:57.008Z,15.30
2023-04-09T11:08:45.783Z,17.83
2023-04-09T11:11:47.966Z,17.50
2023-04-09T11:14:34.840Z,17.15
2023-04-09T11:17:18.422Z,17.98
2023-04-09T11:19:52.302Z,18.20
2023-04-09T11:22:24.313Z,18.23
2023-04-09T11:24:55.250Z,17.55
2023-04-09T11:27:42.496Z,17.05
2023-04-09T11:30:23.543Z,18.88
2023-04-09T11:33:04.681Z,17.92
2023-04-09T11:35:35.805Z,18.20
2023-04-09T11:38:40.484Z,18.10
2023-04-09T11:41:13.980Z,16.92
2023-04-09T11:43:45.139Z,16.65
2023-04-09T11:46:18.161Z,18.90
2023-04-09T11:51:51.086Z,18.75
2023-04-09T11:54:24.167Z,17.45
2023-04-09T11:56:57.569Z,17.95
2023-04-09T11:59:53.773Z,17.45
2023-04-09T12:02:42.057Z,17.17
2023-04-09T12:05:28.851Z,17.65
2023-04-09T12:08:03.307Z,16.13
2023-04-09T12:11:06.469Z,18.00
2023-04-09T12:13:35.027Z,15.20
2023-04-09T12:16:06.758Z,15.40
2023-04-09T12:18:37.752Z,15.27
2023-04-09T12:21:23.264Z,14.68
2023-04-09T12:23:59.692Z,15.50
2023-04-09T12:26:46.761Z,14.02
2023-04-09T12:29:24.607Z,13.48
2023-04-09T12:32:02.522Z,15.88
2023-04-09T12:35:15.576Z,13.45
2023-04-09T12:37:52.019Z,14.77
2023-04-09T12:40:21.070Z,14.75
2023-04-09T12:43:08.469Z,16.05
2023-04-09T12:45:36.701Z,15.48
2023-04-09T12:48:04.824Z,14.77
2023-04-09T12:50:44.228Z,14.35
2023-04-09T12:53:18.690Z,14.10
2023-04-09T12:55:48.851Z,17.17
2023-04-09T12:58:17.060Z,15.50
2023-04-09T13:00:44.915Z,14.38
2023-04-09T13:03:18.240Z,15.05
2023-04-09T13:05:46.508Z,14.38
2023-04-09T13:08:22.464Z,14.20
2023-04-09T13:11:02.999Z,14.20
2023-04-09T13:13:32.991Z,14.57
2023-04-09T13:16:13.034Z,13.75
2023-04-09T13:18:42.256Z,14.38
2023-04-09T13:21:10.486Z,14.90
2023-04-09T13:23:42.958Z,15.27
2023-04-09T13:26:17.075Z,15.30
2023-04-09T13:28:55.648Z,14.18
2023-04-09T13:31:29.934Z,13.50
2023-04-09T13:34:02.440Z,13.00
2023-04-09T13:36:30.998Z,14.90
2023-04-09T13:39:27.082Z,14.25
2023-04-09T13:41:59.117Z,15.80
2023-04-09T13:44:28.776Z,15.75
2023-04-09T13:46:59.868Z,14.52
2023-04-09T13:49:29.840Z,13.68
2023-04-09T13:52:00.992Z,14.65
2023-04-09T13:54:29.133Z,15.65
2023-04-09T13:57:27.065Z,13.80
2023-04-09T13:59:59.557Z,15.15
2023-04-09T14:02:50.526Z,14.98
2023-04-09T14:05:24.711Z,15.05
2023-04-09T14:08:19.796Z,16.05
2023-04-09T14:10:52.346Z,14.90
2023-04-09T14:13:21.832Z,13.07
2023-04-09T14:16:02.567Z,13.93
2023-04-09T14:18:31.784Z,13.90
2023-04-09T14:21:01.895Z,14.10
2023-04-09T14:23:41.732Z,14.60
2023-04-09T14:26:16.075Z,15.98
2023-04-09T14:28:44.786Z,15.13
2023-04-09T14:31:15.936Z,14.20
2023-04-09T14:33:56.495Z,16.60
2023-04-09T14:36:37.693Z,22.25
2023-04-09T14:39:50.246Z,16.42
2023-04-09T14:42:32.211Z,16.08
2023-04-09T14:48:12.899Z,14.75
2023-04-09T14:50:53.220Z,14.50
2023-04-09T14:53:22.136Z,16.13
2023-04-09T14:55:53.118Z,16.13
2023-04-09T14:58:29.674Z,15.82
2023-04-09T15:01:08.119Z,17.02
2023-04-09T15:03:38.444Z,17.65
2023-04-09T15:06:13.927Z,15.48
2023-04-09T15:08:43.810Z,15.18
2023-04-09T15:11:23.995Z,15.13
2023-04-09T15:13:57.530Z,14.98
2023-04-09T15:16:27.335Z,14.40
2023-04-09T15:18:57.231Z,15.85
2023-04-09T15:22:11.378Z,16.58
2023-04-09T15:24:39.472Z,16.05
2023-04-09T15:27:26.769Z,14.52
2023-04-09T15:30:06.482Z,14.85
2023-04-09T15:32:45.705Z,14.30
2023-04-09T15:35:30.815Z,14.75
2023-04-09T15:38:36.339Z,15.88
2023-04-09T15:41:18.291Z,14.82
2023-04-09T15:44:02.668Z,13.60
2023-04-09T15:46:49.050Z,14.70
2023-04-09T15:49:30.517Z,14.25
2023-04-09T15:52:19.344Z,13.90
2023-04-09T15:54:55.606Z,13.25
2023-04-09T15:57:24.876Z,15.35
2023-04-09T15:59:59.954Z,14.98
2023-04-09T16:05:46.535Z,13.70
2023-04-09T16:08:24.748Z,14.02
2023-04-09T16:11:01.938Z,13.80
2023-04-09T16:13:49.225Z,14.07
2023-04-09T16:16:21.736Z,14.63
2023-04-09T16:19:07.037Z,15.18
2023-04-09T16:21:35.226Z,14.43
2023-04-09T16:24:05.312Z,14.35
2023-04-09T16:26:37.645Z,14.15
2023-04-09T16:29:23.956Z,13.50
2023-04-09T16:31:58.440Z,13.20
2023-04-09T16:34:34.173Z,14.07
2023-04-09T16:37:18.143Z,12.73
2023-04-09T16:39:56.122Z,13.88
2023-04-09T16:42:31.827Z,13.52
2023-04-09T16:45:19.344Z,13.57
2023-04-09T16:47:53.374Z,14.00
2023-04-09T16:50:33.433Z,14.68
2023-04-09T16:53:07.012Z,14.10
2023-04-09T16:55:37.322Z,14.38
2023-04-09T16:58:10.428Z,15.50
2023-04-09T17:00:49.970Z,15.55
2023-04-09T17:03:28.995Z,15.52
2023-04-09T17:05:58.867Z,14.65
2023-04-09T17:08:37.259Z,14.40
2023-04-09T17:11:05.215Z,14.25
2023-04-09T17:13:38.558Z,13.63
2023-04-09T17:16:19.453Z,14.48
2023-04-09T17:18:48.332Z,13.70
2023-04-09T17:21:29.730Z,13.73
2023-04-09T17:24:08.984Z,13.98
2023-04-09T17:26:37.845Z,12.93
2023-04-09T17:29:08.149Z,14.65
2023-04-09T17:31:36.459Z,13.13
2023-04-09T17:34:06.779Z,12.68
2023-04-09T17:36:41.098Z,13.88
2023-04-09T17:39:20.478Z,13.90
2023-04-09T17:41:58.033Z,14.68
2023-04-09T17:44:38.478Z,12.50
2023-04-09T17:47:19.328Z,12.20
2023-04-09T17:50:03.412Z,13.52
2023-04-09T17:52:38.474Z,12.80
2023-04-09T17:55:08.470Z,11.18
2023-04-09T17:57:37.259Z,13.60
2023-04-09T18:00:25.706Z,13.43
2023-04-09T18:02:55.200Z,13.25
2023-04-09T18:05:42.013Z,13.45
2023-04-09T18:08:15.237Z,12.25
2023-04-09T18:13:39.840Z,12.18
2023-04-09T18:16:13.595Z,13.75
2023-04-09T18:19:11.888Z,13.52
2023-04-09T18:21:50.063Z,12.48
2023-04-09T18:24:30.772Z,13.80
2023-04-09T18:26:59.070Z,14.63
2023-04-09T18:29:29.111Z,11.80
2023-04-09T18:32:01.309Z,12.55
2023-04-09T18:34:29.372Z,11.80
2023-04-09T18:36:57.550Z,13.15
2023-04-09T18:40:01.259Z,11.63
2023-04-09T18:42:31.718Z,11.73
2023-04-09T18:45:03.042Z,10.43
2023-04-09T18:47:41.772Z,10.77
2023-04-09T18:50:09.972Z,11.00
2023-04-09T18:52:40.295Z,11.73
2023-04-09T18:55:08.409Z,11.23
2023-04-09T18:57:43.688Z,14.70
2023-04-09T19:00:24.151Z,11.60
2023-04-09T19:03:22.839Z,13.57
2023-04-09T19:06:19.148Z,15.32
2023-04-09T19:09:09.160Z,18.20
2023-04-09T19:12:05.155Z,13.35
2023-04-09T19:14:42.066Z,15.85
2023-04-09T19:17:16.554Z,13.32
2023-04-09T19:19:51.660Z,12.98
2023-04-09T19:22:22.137Z,10.75
2023-04-09T19:24:50.254Z,10.18
2023-04-09T19:27:26.550Z,10.40
2023-04-09T19:29:55.430Z,9.88
2023-04-09T19:32:34.584Z,10.20
2023-04-09T19:35:08.876Z,10.50
2023-04-09T19:37:39.057Z,11.35
2023-04-09T19:40:19.290Z,13.85
2023-04-09T19:42:47.625Z,13.50
2023-04-09T19:45:21.561Z,14.63
2023-04-09T19:48:28.851Z,15.10
2023-04-09T19:51:01.545Z,15.30
2023-04-09T19:53:32.431Z,15.05
2023-04-09T19:56:10.653Z,14.60
2023-04-09T19:58:40.026Z,13.75
2023-04-09T20:01:14.475Z,13.25
2023-04-09T20:03:50.278Z,15.30
2023-04-09T20:06:18.940Z,13.93
2023-04-09T20:08:51.260Z,14.25
2023-04-09T20:11:29.965Z,15.25
2023-04-09T20:13:58.602Z,15.23
2023-04-09T20:16:30.909Z,12.57
2023-04-09T20:19:00.951Z,14.38
2023-04-09T20:21:36.954Z,13.57
2023-04-09T20:24:11.260Z,13.35
2023-04-09T20:26:46.341Z,13.35
2023-04-09T20:29:16.170Z,13.43
2023-04-09T20:31:44.977Z,12.60
2023-04-09T20:34:13.447Z,14.02
2023-04-09T20:36:45.812Z,13.15
2023-04-09T20:39:18.097Z,13.38
2023-04-09T20:41:46.352Z,11.75
2023-04-09T20:44:14.642Z,11.45
2023-04-09T20:46:42.705Z,11.70
2023-04-09T20:49:10.557Z,11.35
2023-04-09T20:51:43.708Z,11.70
2023-04-09T20:54:19.459Z,11.55
2023-04-09T20:56:47.937Z,11.65
2023-04-09T20:59:18.776Z,10.50
2023-04-09T21:01:59.715Z,12.52
2023-04-09T21:04:29.894Z,11.40
2023-04-09T21:06:58.228Z,13.75
2023-04-09T21:09:26.924Z,18.48
2023-04-09T21:11:59.129Z,16.40
2023-04-09T21:14:29.398Z,15.60
2023-04-09T21:17:00.405Z,14.10
2023-04-09T21:19:39.403Z,10.60
2023-04-09T21:22:09.921Z,10.68
2023-04-09T21:24:50.303Z,10.10
2023-04-09T21:27:42.933Z,10.38
2023-04-09T21:30:20.165Z,9.65
2023-04-09T21:32:51.514Z,10.75
2023-04-09T21:35:39.524Z,11.23
2023-04-09T21:38:11.996Z,12.63
2023-04-09T21:40:59.595Z,12.43
2023-04-09T21:43:47.668Z,14.75
2023-04-09T22:01:41.071Z,13.82
2023-04-09T22:04:27.799Z,12.98
2023-04-09T22:13:29.460Z,9.63
2023-04-09T22:16:18.713Z,9.88
2023-04-09T22:18:59.912Z,9.25
2023-04-09T22:21:30.254Z,8.25
2023-04-09T22:24:01.566Z,8.10
2023-04-09T22:26:32.739Z,8.30
2023-04-09T22:29:06.420Z,8.95
2023-04-09T22:31:46.352Z,8.70
2023-04-09T22:34:21.265Z,8.70
2023-04-09T22:36:51.229Z,8.73
2023-04-09T22:39:37.987Z,8.40
2023-04-09T22:42:06.521Z,8.00
2023-04-09T22:44:42.987Z,9.20
2023-04-09T22:47:20.334Z,10.23
2023-04-09T22:49:56.452Z,9.48
2023-04-09T22:52:24.639Z,8.73
2023-04-09T22:54:56.188Z,9.18
2023-04-09T22:57:28.399Z,10.63
2023-04-09T22:59:56.570Z,9.73
2023-04-09T23:02:25.656Z,10.55
2023-04-09T23:04:53.948Z,9.63
2023-04-09T23:07:22.818Z,9.70
2023-04-09T23:09:58.012Z,10.50
2023-04-09T23:12:27.847Z,10.50
2023-04-09T23:14:56.121Z,9.13
2023-04-09T23:17:43.168Z,10.07
2023-04-09T23:20:18.671Z,8.90
2023-04-09T23:22:52.101Z,8.10
2023-04-09T23:25:23.310Z,7.97
2023-04-09T23:28:23.184Z,8.60
2023-04-09T23:31:02.784Z,8.63
2023-04-09T23:33:35.062Z,8.60
2023-04-09T23:36:05.193Z,8.38
2023-04-09T23:38:34.464Z,8.45
2023-04-09T23:41:08.803Z,10.02
2023-04-09T23:43:38.119Z,10.50
2023-04-09T23:46:07.385Z,10.73
2023-04-09T23:48:37.516Z,12.02
2023-04-09T23:51:09.879Z,12.50
2023-04-09T23:53:41.860Z,12.50
2023-04-09T23:56:10.142Z,12.45
2023-04-09T23:58:42.446Z,11.85
